createdAt,value
2023-04-29T00:02:00.693Z,7.34
2023-04-29T00:03:30.520Z,7.35
2023-04-29T00:05:05.192Z,7.35
2023-04-29T00:06:32.155Z,7.35
2023-04-29T00:08:08.024Z,7.35
2023-04-29T00:09:38.789Z,7.36
2023-04-29T00:11:11.857Z,7.36
2023-04-29T00:12:45.404Z,7.36
2023-04-29T00:14:14.805Z,7.35
2023-04-29T00:16:03.791Z,7.36
2023-04-29T00:17:28.145Z,7.36
2023-04-29T00:18:50.003Z,7.35
2023-04-29T00:20:25.491Z,7.34
2023-04-29T00:21:56.495Z,7.34
2023-04-29T00:23:21.149Z,7.34
2023-04-29T00:24:52.728Z,7.34
2023-04-29T00:26:18.821Z,7.35
2023-04-29T00:27:54.017Z,7.34
2023-04-29T00:29:27.705Z,7.34
2023-04-29T00:31:13.051Z,7.35
2023-04-29T00:32:54.103Z,7.34
2023-04-29T00:34:20.826Z,7.35
2023-04-29T00:35:56.505Z,7.35
2023-04-29T00:37:30.281Z,7.36
2023-04-29T00:39:15.575Z,7.36
2023-04-29T00:40:52.078Z,7.36
2023-04-29T00:42:25.792Z,7.37
2023-04-29T00:44:10.674Z,7.37
2023-04-29T00:45:33.097Z,7.39
2023-04-29T00:47:13.533Z,7.40
2023-04-29T00:48:49.604Z,7.41
2023-04-29T00:50:26.021Z,7.43
2023-04-29T00:51:52.431Z,7.44
2023-04-29T00:53:33.568Z,7.46
2023-04-29T00:54:55.599Z,7.48
2023-04-29T00:56:30.893Z,7.48
2023-04-29T00:58:02.580Z,7.49
2023-04-29T00:59:36.199Z,7.50
2023-04-29T01:01:11.777Z,7.50
2023-04-29T01:02:49.584Z,7.50
2023-04-29T01:04:23.089Z,7.50
2023-04-29T01:06:04.348Z,7.50
2023-04-29T01:07:42.802Z,7.51
2023-04-29T01:09:09.733Z,7.50
2023-04-29T01:10:43.206Z,7.50
2023-04-29T01:12:06.763Z,7.50
2023-04-29T01:13:40.449Z,7.50
2023-04-29T01:15:11.745Z,7.51
2023-04-29T01:16:45.469Z,7.51
2023-04-29T01:18:21.192Z,7.51
2023-04-29T01:19:55.945Z,7.50
2023-04-29T01:21:25.895Z,7.50
2023-04-29T01:22:59.219Z,7.50
2023-04-29T01:24:48.500Z,7.50
2023-04-29T01:26:22.415Z,7.51
2023-04-29T01:28:01.175Z,7.52
2023-04-29T01:29:35.341Z,7.52
2023-04-29T01:31:09.843Z,7.53
2023-04-29T01:32:43.427Z,7.53
2023-04-29T01:34:29.112Z,7.54
2023-04-29T01:36:04.631Z,7.55
2023-04-29T01:37:37.341Z,7.55
2023-04-29T01:39:10.997Z,7.56
2023-04-29T01:40:58.634Z,7.55
2023-04-29T01:42:40.656Z,7.55
2023-04-29T01:44:30.014Z,7.55
2023-04-29T01:46:05.912Z,7.55
2023-04-29T01:47:41.749Z,7.55
2023-04-29T01:49:22.511Z,7.55
2023-04-29T01:50:56.275Z,7.56
2023-04-29T01:52:20.604Z,7.56
2023-04-29T01:54:14.420Z,7.56
2023-04-29T01:55:37.155Z,7.56
2023-04-29T01:57:49.992Z,7.55
2023-04-29T01:59:47.115Z,7.54
2023-04-29T02:01:56.548Z,7.53
2023-04-29T02:03:42.136Z,7.52
2023-04-29T02:05:09.245Z,7.52
2023-04-29T02:06:34.392Z,7.51
2023-04-29T02:08:13.718Z,7.50
2023-04-29T02:09:38.633Z,7.49
2023-04-29T02:11:07.479Z,7.49
2023-04-29T02:12:32.069Z,7.47
2023-04-29T02:13:54.751Z,7.46
2023-04-29T02:15:19.128Z,7.45
2023-04-29T02:16:41.421Z,7.45
2023-04-29T02:18:05.564Z,7.44
2023-04-29T02:19:27.558Z,7.43
2023-04-29T02:20:54.229Z,7.42
2023-04-29T02:22:28.122Z,7.40
2023-04-29T02:23:51.821Z,7.39
2023-04-29T02:25:17.664Z,7.38
2023-04-29T02:26:50.857Z,7.37
2023-04-29T02:28:27.770Z,7.36
2023-04-29T02:29:49.421Z,7.35
2023-04-29T02:31:22.901Z,7.34
2023-04-29T02:32:51.890Z,7.33
2023-04-29T02:34:20.927Z,7.33
2023-04-29T02:35:54.385Z,7.32
2023-04-29T02:37:30.239Z,7.31
2023-04-29T02:38:54.012Z,7.30
2023-04-29T02:40:29.723Z,7.31
2023-04-29T02:41:53.387Z,7.29
2023-04-29T02:43:14.973Z,7.29
2023-04-29T02:45:00.175Z,7.27
2023-04-29T02:46:41.019Z,7.27
2023-04-29T02:48:10.216Z,7.25
2023-04-29T02:49:55.725Z,7.24
2023-04-29T02:51:31.824Z,7.24
2023-04-29T02:52:53.748Z,7.23
2023-04-29T02:54:27.489Z,7.22
2023-04-29T02:56:03.149Z,7.21
2023-04-29T02:57:29.760Z,7.21
2023-04-29T02:58:58.331Z,7.20
2023-04-29T03:00:22.629Z,7.19
2023-04-29T03:01:56.050Z,7.18
2023-04-29T03:03:20.481Z,7.17
2023-04-29T03:05:01.552Z,7.16
2023-04-29T03:06:26.266Z,7.15
2023-04-29T03:08:02.153Z,7.14
2023-04-29T03:09:48.555Z,7.13
2023-04-29T03:11:10.261Z,7.12
2023-04-29T03:12:34.760Z,7.11
2023-04-29T03:13:58.890Z,7.10
2023-04-29T03:15:25.151Z,7.09
2023-04-29T03:17:14.003Z,7.08
2023-04-29T03:18:36.392Z,7.07
2023-04-29T03:19:59.895Z,7.06
2023-04-29T03:21:29.482Z,7.06
2023-04-29T03:22:53.734Z,7.06
2023-04-29T03:24:18.769Z,7.05
2023-04-29T03:25:41.643Z,7.04
2023-04-29T03:27:06.237Z,7.04
2023-04-29T03:28:30.563Z,7.04
2023-04-29T03:29:52.189Z,7.03
2023-04-29T03:31:23.328Z,7.03
2023-04-29T03:32:50.263Z,7.02
2023-04-29T03:34:14.686Z,7.01
2023-04-29T03:35:48.456Z,7.01
2023-04-29T03:37:27.156Z,7.00
2023-04-29T03:39:06.642Z,6.99
2023-04-29T03:40:33.680Z,6.99
2023-04-29T03:41:59.634Z,6.99
2023-04-29T03:43:28.963Z,6.98
2023-04-29T03:45:02.778Z,6.98
2023-04-29T03:46:36.316Z,6.98
2023-04-29T03:48:09.806Z,6.97
2023-04-29T03:49:31.986Z,6.97
2023-04-29T03:51:01.393Z,6.97
2023-04-29T03:52:31.356Z,7.11
2023-04-29T03:54:00.731Z,8.07
2023-04-29T03:55:32.033Z,9.49
2023-04-29T03:57:14.277Z,10.38
2023-04-29T03:58:47.695Z,10.34
2023-04-29T04:00:28.724Z,9.93
2023-04-29T04:01:58.536Z,9.55
2023-04-29T04:03:28.429Z,9.23
2023-04-29T04:04:59.077Z,8.96
2023-04-29T04:06:23.309Z,8.77
2023-04-29T04:07:47.129Z,8.62
2023-04-29T04:09:29.791Z,8.46
2023-04-29T04:11:15.175Z,8.33
2023-04-29T04:12:51.504Z,8.21
2023-04-29T04:14:24.827Z,8.11
2023-04-29T04:15:53.419Z,8.02
2023-04-29T04:17:17.259Z,7.96
2023-04-29T04:18:53.414Z,7.88
2023-04-29T04:20:19.564Z,7.83
2023-04-29T04:21:54.001Z,7.78
2023-04-29T04:23:29.731Z,7.74
2023-04-29T04:24:51.485Z,7.69
2023-04-29T04:26:34.499Z,7.66
2023-04-29T04:28:12.846Z,7.63
2023-04-29T04:30:28.416Z,7.61
2023-04-29T04:32:02.512Z,7.60
2023-04-29T04:33:37.308Z,7.58
2023-04-29T04:35:18.775Z,7.57
2023-04-29T04:37:04.753Z,7.57
2023-04-29T04:38:38.299Z,7.58
2023-04-29T04:40:18.332Z,7.59
2023-04-29T04:42:07.967Z,7.77
2023-04-29T04:43:30.548Z,8.68
2023-04-29T04:45:11.245Z,10.07
2023-04-29T04:46:50.558Z,11.06
2023-04-29T04:48:44.994Z,10.91
2023-04-29T04:50:30.542Z,10.50
2023-04-29T04:52:04.068Z,10.12
2023-04-29T04:53:39.818Z,9.90
2023-04-29T04:55:24.503Z,9.70
2023-04-29T04:56:48.529Z,9.55
2023-04-29T04:58:33.953Z,9.44
2023-04-29T05:00:07.106Z,9.36
2023-04-29T05:01:40.710Z,9.29
2023-04-29T05:03:16.420Z,9.22
2023-04-29T05:04:49.732Z,9.17
2023-04-29T05:06:24.640Z,9.13
2023-04-29T05:07:48.929Z,9.10
2023-04-29T05:09:14.063Z,9.07
2023-04-29T05:10:38.360Z,9.05
2023-04-29T05:12:12.496Z,9.03
2023-04-29T05:13:52.986Z,9.02
2023-04-29T05:15:19.059Z,9.00
2023-04-29T05:16:58.904Z,8.99
2023-04-29T05:18:47.338Z,8.98
2023-04-29T05:20:29.891Z,8.96
2023-04-29T05:21:52.133Z,8.95
2023-04-29T05:23:13.810Z,8.96
2023-04-29T05:24:42.926Z,8.97
2023-04-29T05:26:12.195Z,8.98
2023-04-29T05:27:34.429Z,8.99
2023-04-29T05:29:08.994Z,9.00
2023-04-29T05:30:39.608Z,9.03
2023-04-29T05:32:11.519Z,9.06
2023-04-29T05:33:57.028Z,9.09
2023-04-29T05:35:19.928Z,9.12
2023-04-29T05:36:55.320Z,9.15
2023-04-29T05:38:37.930Z,9.19
2023-04-29T05:40:12.966Z,9.23
2023-04-29T05:41:49.824Z,9.26
2023-04-29T05:43:17.953Z,9.31
2023-04-29T05:44:42.058Z,9.34
2023-04-29T05:46:22.947Z,9.39
2023-04-29T05:47:50.220Z,9.44
2023-04-29T05:49:30.552Z,9.48
2023-04-29T05:50:54.635Z,9.53
2023-04-29T05:52:28.092Z,9.59
2023-04-29T05:54:05.514Z,9.65
2023-04-29T05:55:52.316Z,9.72
2023-04-29T05:57:34.702Z,9.78
2023-04-29T05:59:06.340Z,9.86
2023-04-29T06:00:53.453Z,9.96
2023-04-29T06:02:30.951Z,10.04
2023-04-29T06:04:15.773Z,10.11
2023-04-29T06:06:11.290Z,10.21
2023-04-29T06:08:41.744Z,10.32
2023-04-29T06:10:31.834Z,10.36
2023-04-29T06:11:58.950Z,10.39
2023-04-29T06:13:34.493Z,10.39
2023-04-29T06:14:58.343Z,10.40
2023-04-29T06:16:20.332Z,10.41
2023-04-29T06:17:50.101Z,10.42
2023-04-29T06:19:21.280Z,10.43
2023-04-29T06:20:55.289Z,10.45
2023-04-29T06:22:30.826Z,10.45
2023-04-29T06:24:01.791Z,10.45
2023-04-29T06:25:34.259Z,10.46
2023-04-29T06:27:18.856Z,10.47
2023-04-29T06:29:04.279Z,10.46
2023-04-29T06:30:34.349Z,10.45
2023-04-29T06:32:19.100Z,10.44
2023-04-29T06:33:55.451Z,10.44
2023-04-29T06:35:28.870Z,10.43
2023-04-29T06:37:52.810Z,10.44
2023-04-29T06:39:32.664Z,10.45
2023-04-29T06:41:39.142Z,10.48
2023-04-29T06:43:36.881Z,10.55
2023-04-29T06:45:43.061Z,10.62
2023-04-29T06:47:25.338Z,10.70
2023-04-29T06:49:07.153Z,10.79
2023-04-29T06:50:44.947Z,10.87
2023-04-29T06:52:06.947Z,10.97
2023-04-29T06:53:40.806Z,11.07
2023-04-29T06:55:16.425Z,11.19
2023-04-29T06:56:46.041Z,11.31
2023-04-29T06:58:19.859Z,11.40
2023-04-29T07:00:05.349Z,11.48
2023-04-29T07:01:44.441Z,11.56
2023-04-29T07:03:21.041Z,11.61
2023-04-29T07:05:06.440Z,11.64
2023-04-29T07:06:51.707Z,11.66
2023-04-29T07:08:45.608Z,11.68
2023-04-29T07:10:19.071Z,11.69
2023-04-29T07:12:06.543Z,11.71
2023-04-29T07:13:38.206Z,11.75
2023-04-29T07:15:13.912Z,11.77
2023-04-29T07:16:58.956Z,11.81
2023-04-29T07:18:25.818Z,11.85
2023-04-29T07:19:47.735Z,11.88
2023-04-29T07:21:16.845Z,11.92
2023-04-29T07:22:52.673Z,11.97
2023-04-29T07:24:29.822Z,12.03
2023-04-29T07:25:52.312Z,12.07
2023-04-29T07:27:33.499Z,12.12
2023-04-29T07:28:57.427Z,12.18
2023-04-29T07:30:19.675Z,12.24
2023-04-29T07:31:44.107Z,12.29
2023-04-29T07:33:07.418Z,12.36
2023-04-29T07:34:41.215Z,12.44
2023-04-29T07:36:14.662Z,12.52
2023-04-29T07:37:48.365Z,12.59
2023-04-29T07:39:12.299Z,12.66
2023-04-29T07:40:38.443Z,12.72
2023-04-29T07:42:12.101Z,12.78
2023-04-29T07:43:36.357Z,12.86
2023-04-29T07:45:02.197Z,12.96
2023-04-29T07:46:26.103Z,13.07
2023-04-29T07:48:01.656Z,13.19
2023-04-29T07:49:36.086Z,13.35
2023-04-29T07:51:05.022Z,13.46
2023-04-29T07:52:39.036Z,13.59
2023-04-29T07:54:13.765Z,13.73
2023-04-29T07:55:40.156Z,13.85
2023-04-29T07:57:15.427Z,13.99
2023-04-29T07:58:44.913Z,14.10
2023-04-29T08:00:15.992Z,14.21
2023-04-29T08:01:49.427Z,14.30
2023-04-29T08:03:25.593Z,14.35
2023-04-29T08:05:01.501Z,14.39
2023-04-29T08:06:35.870Z,14.42
2023-04-29T08:08:11.455Z,14.42
2023-04-29T08:09:37.385Z,14.41
2023-04-29T08:11:03.468Z,14.39
2023-04-29T08:12:27.719Z,14.37
2023-04-29T08:14:03.458Z,14.32
2023-04-29T08:15:33.095Z,14.28
2023-04-29T08:17:14.023Z,14.25
2023-04-29T08:20:43.800Z,14.20
2023-04-29T08:22:08.008Z,14.17
2023-04-29T08:23:34.386Z,14.16
2023-04-29T08:25:05.385Z,14.14
2023-04-29T08:26:39.526Z,14.10
2023-04-29T08:28:10.837Z,14.07
2023-04-29T08:29:35.009Z,14.06
2023-04-29T08:31:10.565Z,14.05
2023-04-29T08:32:44.500Z,14.05
2023-04-29T08:34:22.808Z,14.05
2023-04-29T08:36:03.786Z,14.06
2023-04-29T08:37:45.022Z,14.08
2023-04-29T08:39:07.237Z,14.09
2023-04-29T08:40:39.158Z,14.10
2023-04-29T08:42:03.252Z,14.12
2023-04-29T08:43:25.490Z,14.15
2023-04-29T08:44:50.127Z,14.19
2023-04-29T08:46:21.462Z,14.25
2023-04-29T08:48:08.244Z,14.32
2023-04-29T08:49:38.124Z,14.37
2023-04-29T08:51:09.686Z,14.42
2023-04-29T08:52:33.853Z,14.46
2023-04-29T08:53:55.392Z,14.50
2023-04-29T08:55:24.846Z,14.54
2023-04-29T08:56:54.132Z,14.59
2023-04-29T08:58:16.472Z,14.64
2023-04-29T08:59:41.317Z,14.70
2023-04-29T09:01:15.006Z,14.76
2023-04-29T09:02:39.488Z,14.82
2023-04-29T09:04:01.546Z,14.88
2023-04-29T09:05:35.592Z,14.93
2023-04-29T09:07:09.006Z,14.98
2023-04-29T09:08:30.963Z,15.02
2023-04-29T09:09:53.623Z,15.04
2023-04-29T09:11:17.719Z,15.05
2023-04-29T09:12:44.601Z,15.05
2023-04-29T09:14:09.687Z,15.06
2023-04-29T09:15:33.982Z,15.07
2023-04-29T09:16:58.109Z,15.07
2023-04-29T09:18:28.698Z,15.07
2023-04-29T09:20:05.771Z,15.07
2023-04-29T09:21:39.880Z,15.06
2023-04-29T09:23:19.743Z,15.05
2023-04-29T09:24:43.692Z,15.04
2023-04-29T09:26:17.409Z,15.05
2023-04-29T09:27:52.300Z,15.07
2023-04-29T09:29:16.144Z,15.09
2023-04-29T09:30:45.968Z,15.12
2023-04-29T09:32:07.845Z,15.17
2023-04-29T09:33:31.480Z,15.21
2023-04-29T09:34:55.459Z,15.23
2023-04-29T09:36:17.621Z,15.26
2023-04-29T09:37:47.114Z,15.29
2023-04-29T09:39:11.888Z,15.31
2023-04-29T09:40:46.518Z,15.32
2023-04-29T09:42:15.097Z,15.32
2023-04-29T09:43:37.673Z,15.33
2023-04-29T09:45:06.461Z,15.33
2023-04-29T09:46:28.788Z,15.35
2023-04-29T09:47:52.797Z,15.38
2023-04-29T09:49:14.547Z,15.41
2023-04-29T09:50:50.941Z,15.44
2023-04-29T09:52:12.985Z,15.49
2023-04-29T09:53:38.080Z,15.51
2023-04-29T09:55:01.742Z,15.54
2023-04-29T09:56:34.925Z,15.58
2023-04-29T09:57:58.318Z,15.63
2023-04-29T09:59:20.121Z,15.68
2023-04-29T10:00:41.953Z,15.72
2023-04-29T10:02:18.444Z,15.77
2023-04-29T10:03:40.734Z,15.80
2023-04-29T10:05:02.468Z,15.84
2023-04-29T10:06:24.635Z,15.86
2023-04-29T10:07:46.544Z,15.90
2023-04-29T10:09:19.874Z,15.92
2023-04-29T10:10:41.778Z,15.97
2023-04-29T10:12:03.188Z,16.03
2023-04-29T10:13:27.512Z,16.10
2023-04-29T10:14:51.961Z,16.17
2023-04-29T10:16:13.697Z,16.26
2023-04-29T10:17:35.501Z,16.32
2023-04-29T10:19:08.917Z,16.39
2023-04-29T10:20:54.115Z,16.47
2023-04-29T10:22:27.824Z,16.58
2023-04-29T10:23:49.497Z,16.66
2023-04-29T10:25:12.100Z,16.75
2023-04-29T10:26:38.534Z,16.84
2023-04-29T10:28:07.836Z,16.92
2023-04-29T10:29:41.664Z,17.02
2023-04-29T10:31:17.521Z,17.10
2023-04-29T10:32:50.962Z,17.17
2023-04-29T10:34:13.937Z,17.23
2023-04-29T10:35:43.588Z,17.26
2023-04-29T10:37:05.400Z,17.30
2023-04-29T10:38:35.529Z,17.32
2023-04-29T10:40:04.552Z,17.31
2023-04-29T10:41:28.782Z,17.30
2023-04-29T10:42:52.882Z,17.28
2023-04-29T10:44:28.944Z,17.24
2023-04-29T10:45:52.718Z,17.19
2023-04-29T10:47:35.961Z,17.15
2023-04-29T10:48:59.695Z,17.10
2023-04-29T10:50:33.856Z,17.05
2023-04-29T10:51:58.090Z,16.99
2023-04-29T10:53:19.992Z,16.93
2023-04-29T10:54:48.833Z,16.86
2023-04-29T10:56:12.482Z,16.83
2023-04-29T10:57:36.722Z,16.81
2023-04-29T10:58:58.621Z,16.77
2023-04-29T11:00:39.692Z,16.73
2023-04-29T11:02:01.257Z,16.69
2023-04-29T11:03:35.332Z,16.65
2023-04-29T11:05:09.392Z,16.61
2023-04-29T11:06:54.516Z,16.57
2023-04-29T11:08:39.715Z,16.54
2023-04-29T11:10:03.535Z,16.52
2023-04-29T11:11:28.704Z,16.53
2023-04-29T11:12:52.786Z,16.55
2023-04-29T11:14:22.161Z,16.59
2023-04-29T11:15:44.154Z,16.62
2023-04-29T11:17:07.938Z,16.63
2023-04-29T11:18:41.758Z,16.63
2023-04-29T11:20:03.263Z,16.60
2023-04-29T11:21:25.214Z,16.57
2023-04-29T11:22:49.364Z,16.55
2023-04-29T11:24:18.269Z,16.53
2023-04-29T11:25:51.818Z,16.49
2023-04-29T11:27:25.831Z,16.44
2023-04-29T11:29:01.226Z,16.36
2023-04-29T11:30:42.390Z,16.25
2023-04-29T11:32:04.109Z,16.15
2023-04-29T11:33:36.017Z,16.04
2023-04-29T11:34:57.771Z,15.93
2023-04-29T11:36:26.957Z,15.83
2023-04-29T11:37:53.073Z,15.73
2023-04-29T11:39:15.179Z,15.64
2023-04-29T11:40:39.503Z,15.59
2023-04-29T11:42:32.976Z,15.52
2023-04-29T11:44:09.529Z,15.49
2023-04-29T11:45:39.102Z,15.46
2023-04-29T11:47:15.005Z,15.45
2023-04-29T11:49:00.145Z,15.43
2023-04-29T11:50:34.055Z,15.42
2023-04-29T11:52:03.081Z,15.42
2023-04-29T11:53:25.191Z,15.41
2023-04-29T11:54:46.629Z,15.42
2023-04-29T11:56:18.495Z,15.43
2023-04-29T11:57:52.473Z,15.43
2023-04-29T11:59:26.070Z,15.43
2023-04-29T12:00:50.083Z,15.43
2023-04-29T12:02:16.153Z,15.42
2023-04-29T12:03:52.220Z,15.40
2023-04-29T12:05:17.565Z,15.37
2023-04-29T12:06:51.644Z,15.34
2023-04-29T12:08:14.182Z,15.31
2023-04-29T12:09:45.554Z,15.28
2023-04-29T12:11:07.519Z,15.26
2023-04-29T12:12:37.060Z,15.26
2023-04-29T12:14:06.388Z,15.27
2023-04-29T12:15:40.267Z,15.28
2023-04-29T12:17:13.499Z,15.29
2023-04-29T12:18:49.318Z,15.31
2023-04-29T12:20:11.246Z,15.32
2023-04-29T12:21:47.709Z,15.33
2023-04-29T12:23:18.982Z,15.34
2023-04-29T12:24:50.833Z,15.35
2023-04-29T12:26:32.865Z,15.35
2023-04-29T12:27:57.260Z,15.34
2023-04-29T12:29:32.774Z,15.33
2023-04-29T12:30:56.754Z,15.32
2023-04-29T12:32:20.909Z,15.31
2023-04-29T12:33:50.399Z,15.32
2023-04-29T12:35:14.649Z,15.34
2023-04-29T12:36:48.265Z,15.39
2023-04-29T12:38:33.736Z,15.45
2023-04-29T12:40:07.042Z,15.50
2023-04-29T12:41:42.915Z,15.55
2023-04-29T12:43:04.697Z,15.60
2023-04-29T12:44:36.695Z,15.65
2023-04-29T12:46:09.982Z,15.72
2023-04-29T12:47:34.451Z,15.77
2023-04-29T12:49:04.101Z,15.82
2023-04-29T12:50:37.918Z,15.86
2023-04-29T12:52:03.838Z,15.91
2023-04-29T12:53:28.111Z,15.96
2023-04-29T12:54:49.677Z,16.01
2023-04-29T12:56:13.752Z,16.06
2023-04-29T12:57:35.577Z,16.07
2023-04-29T12:58:57.984Z,16.09
2023-04-29T13:00:20.543Z,16.06
2023-04-29T13:01:45.006Z,16.04
2023-04-29T13:03:07.901Z,16.02
2023-04-29T13:04:30.046Z,16.01
2023-04-29T13:06:12.629Z,16.01
2023-04-29T13:08:06.265Z,16.06
2023-04-29T13:09:38.185Z,16.10
2023-04-29T13:11:00.003Z,16.14
2023-04-29T13:12:21.652Z,16.17
2023-04-29T13:13:43.634Z,16.19
2023-04-29T13:15:05.368Z,16.22
2023-04-29T13:16:29.808Z,16.22
2023-04-29T13:17:58.930Z,16.24
2023-04-29T13:19:48.134Z,16.25
2023-04-29T13:21:12.882Z,16.24
2023-04-29T13:22:35.003Z,16.24
2023-04-29T13:23:56.538Z,16.21
2023-04-29T13:25:17.881Z,16.19
2023-04-29T13:26:49.676Z,16.16
2023-04-29T13:28:20.268Z,16.14
2023-04-29T13:29:42.046Z,16.11
2023-04-29T13:31:05.504Z,16.10
2023-04-29T13:32:38.107Z,16.09
2023-04-29T13:34:05.175Z,16.07
2023-04-29T13:35:29.892Z,16.05
2023-04-29T13:36:51.678Z,16.05
2023-04-29T13:38:15.973Z,16.03
2023-04-29T13:39:38.361Z,16.04
2023-04-29T13:40:59.837Z,16.07
2023-04-29T13:42:26.958Z,16.09
2023-04-29T13:43:50.790Z,16.14
2023-04-29T13:45:22.546Z,16.20
2023-04-29T13:46:56.296Z,16.28
2023-04-29T13:49:03.423Z,16.39
2023-04-29T13:51:09.622Z,16.60
2023-04-29T13:55:38.367Z,17.59
2023-04-29T13:59:52.198Z,18.09
2023-04-29T14:01:54.231Z,18.22
2023-04-29T14:04:41.389Z,18.60
2023-04-29T14:06:07.833Z,18.85
2023-04-29T14:07:31.834Z,19.09
2023-04-29T14:09:05.013Z,19.26
2023-04-29T14:10:40.953Z,19.38
2023-04-29T14:12:04.803Z,19.50
2023-04-29T14:13:29.486Z,19.56
2023-04-29T14:15:03.172Z,19.55
2023-04-29T14:16:33.048Z,19.47
2023-04-29T14:17:59.069Z,19.37
2023-04-29T14:19:32.868Z,19.25
2023-04-29T14:20:57.596Z,19.12
2023-04-29T14:22:31.582Z,18.98
2023-04-29T14:24:06.856Z,18.88
2023-04-29T14:25:29.139Z,18.76
2023-04-29T14:26:59.033Z,18.61
2023-04-29T14:28:22.658Z,18.43
2023-04-29T14:29:52.210Z,18.26
2023-04-29T14:31:26.765Z,18.10
2023-04-29T14:33:00.239Z,17.96
2023-04-29T14:34:41.160Z,17.83
2023-04-29T14:36:17.081Z,17.73
2023-04-29T14:37:41.613Z,17.65
2023-04-29T14:39:22.595Z,17.56
2023-04-29T14:41:07.388Z,17.47
2023-04-29T14:42:42.682Z,17.41
2023-04-29T14:44:11.418Z,17.36
2023-04-29T14:45:45.092Z,17.33
2023-04-29T14:47:21.204Z,17.29
2023-04-29T14:48:57.081Z,17.25
2023-04-29T14:50:30.997Z,17.26
2023-04-29T14:52:06.419Z,17.26
2023-04-29T14:53:28.732Z,17.26
2023-04-29T14:55:02.059Z,17.23
2023-04-29T14:56:27.459Z,17.18
2023-04-29T14:58:12.377Z,17.12
2023-04-29T14:59:34.761Z,17.08
2023-04-29T15:00:58.877Z,17.05
2023-04-29T15:02:34.688Z,17.02
2023-04-29T15:04:19.530Z,17.00
2023-04-29T15:06:05.076Z,16.98
2023-04-29T15:07:36.838Z,16.95
2023-04-29T15:09:05.426Z,16.91
2023-04-29T15:10:27.555Z,16.87
2023-04-29T15:11:51.629Z,16.83
2023-04-29T15:13:15.401Z,16.77
2023-04-29T15:15:04.692Z,16.73
2023-04-29T15:16:29.328Z,16.68
2023-04-29T15:18:14.635Z,16.62
2023-04-29T15:19:44.281Z,16.57
2023-04-29T15:21:06.236Z,16.49
2023-04-29T15:22:32.832Z,16.43
2023-04-29T15:24:08.553Z,16.37
2023-04-29T15:25:36.351Z,16.30
2023-04-29T15:27:12.994Z,16.25
2023-04-29T15:28:43.319Z,16.17
2023-04-29T15:30:05.339Z,16.12
2023-04-29T15:31:39.458Z,16.08
2023-04-29T15:33:12.777Z,16.02
2023-04-29T15:34:36.733Z,15.98
2023-04-29T15:36:18.996Z,15.95
2023-04-29T15:38:02.141Z,15.90
2023-04-29T15:39:29.241Z,15.87
2023-04-29T15:41:02.700Z,15.85
2023-04-29T15:42:36.390Z,15.82
2023-04-29T15:44:02.141Z,15.80
2023-04-29T15:45:26.526Z,15.77
2023-04-29T15:46:48.588Z,15.74
2023-04-29T15:48:21.439Z,15.72
2023-04-29T15:49:56.373Z,15.67
2023-04-29T15:51:20.995Z,15.64
2023-04-29T15:52:52.366Z,15.61
2023-04-29T15:54:23.766Z,15.59
2023-04-29T15:56:00.148Z,15.55
2023-04-29T15:57:41.175Z,15.51
2023-04-29T15:59:14.603Z,15.48
2023-04-29T16:00:38.862Z,15.43
2023-04-29T16:02:00.548Z,15.40
2023-04-29T16:03:30.229Z,15.37
2023-04-29T16:05:10.749Z,15.35
2023-04-29T16:06:34.992Z,15.33
2023-04-29T16:07:59.090Z,15.31
2023-04-29T16:09:35.081Z,15.31
2023-04-29T16:11:08.219Z,15.31
2023-04-29T16:12:32.427Z,15.31
2023-04-29T16:13:56.537Z,15.31
2023-04-29T16:15:30.479Z,15.31
2023-04-29T16:17:02.114Z,15.33
2023-04-29T16:18:24.087Z,15.33
2023-04-29T16:19:48.363Z,15.33
2023-04-29T16:21:12.695Z,15.33
2023-04-29T16:22:34.681Z,15.33
2023-04-29T16:23:58.974Z,15.32
2023-04-29T16:25:23.085Z,15.32
2023-04-29T16:26:48.239Z,15.32
2023-04-29T16:28:09.560Z,15.33
2023-04-29T16:29:39.228Z,15.32
2023-04-29T16:31:00.936Z,15.31
2023-04-29T16:32:34.732Z,15.31
2023-04-29T16:33:57.183Z,15.30
2023-04-29T16:35:31.029Z,15.29
2023-04-29T16:37:07.258Z,15.30
2023-04-29T16:38:31.437Z,15.29
2023-04-29T16:39:53.373Z,15.29
2023-04-29T16:41:29.369Z,15.29
2023-04-29T16:42:51.453Z,15.28
2023-04-29T16:44:27.799Z,15.26
2023-04-29T16:45:52.090Z,15.25
2023-04-29T16:47:23.499Z,15.24
2023-04-29T16:48:57.005Z,15.23
2023-04-29T16:50:21.124Z,15.21
2023-04-29T16:52:01.774Z,15.18
2023-04-29T16:53:28.214Z,15.16
2023-04-29T16:55:03.799Z,15.14
2023-04-29T16:56:25.913Z,15.11
2023-04-29T16:58:01.163Z,15.09
2023-04-29T16:59:28.169Z,15.05
2023-04-29T17:01:04.023Z,15.03
2023-04-29T17:02:45.080Z,15.01
2023-04-29T17:04:09.157Z,14.98
2023-04-29T17:05:43.059Z,14.95
2023-04-29T17:07:19.099Z,14.92
2023-04-29T17:08:45.699Z,14.89
2023-04-29T17:10:26.657Z,14.86
2023-04-29T17:12:03.619Z,14.83
2023-04-29T17:13:37.674Z,14.81
2023-04-29T17:14:59.352Z,14.78
2023-04-29T17:16:35.375Z,14.76
2023-04-29T17:17:57.214Z,14.73
2023-04-29T17:19:21.560Z,14.70
2023-04-29T17:20:58.734Z,14.67
2023-04-29T17:22:20.492Z,14.74
2023-04-29T17:23:54.002Z,15.63
2023-04-29T17:25:29.732Z,16.91
2023-04-29T17:26:51.853Z,17.66
2023-04-29T17:28:25.102Z,17.64
2023-04-29T17:29:49.725Z,17.27
2023-04-29T17:31:24.876Z,16.89
2023-04-29T17:33:05.601Z,16.50
2023-04-29T17:34:31.114Z,16.22
2023-04-29T17:36:01.277Z,15.99
2023-04-29T17:37:36.827Z,15.83
2023-04-29T17:39:12.405Z,15.63
2023-04-29T17:40:34.725Z,15.49
2023-04-29T17:42:10.006Z,15.36
2023-04-29T17:43:39.427Z,15.25
2023-04-29T17:45:03.480Z,15.13
2023-04-29T17:46:39.570Z,15.03
2023-04-29T17:48:28.084Z,14.93
2023-04-29T17:50:04.206Z,14.83
2023-04-29T17:51:28.900Z,14.76
2023-04-29T17:52:58.042Z,14.70
2023-04-29T17:54:31.905Z,14.63
2023-04-29T17:55:55.356Z,14.76
2023-04-29T17:57:28.996Z,15.57
2023-04-29T17:59:05.348Z,16.93
2023-04-29T18:00:41.637Z,17.73
2023-04-29T18:02:12.796Z,17.57
2023-04-29T18:03:35.060Z,17.17
2023-04-29T18:04:58.849Z,16.77
2023-04-29T18:06:28.308Z,16.44
2023-04-29T18:07:50.653Z,16.14
2023-04-29T18:09:14.786Z,15.92
2023-04-29T18:10:44.271Z,15.70
2023-04-29T18:12:08.208Z,15.53
2023-04-29T18:13:30.548Z,15.38
2023-04-29T18:14:54.406Z,15.24
2023-04-29T18:16:18.303Z,15.11
2023-04-29T18:17:54.690Z,14.98
2023-04-29T18:19:17.520Z,14.91
2023-04-29T18:20:42.459Z,15.45
2023-04-29T18:22:06.333Z,16.51
2023-04-29T18:23:28.189Z,17.54
2023-04-29T18:24:50.176Z,17.94
2023-04-29T18:26:14.384Z,17.71
2023-04-29T18:27:44.462Z,17.27
2023-04-29T18:29:08.353Z,16.79
2023-04-29T18:30:32.424Z,16.42
2023-04-29T18:31:56.563Z,16.12
2023-04-29T18:33:32.214Z,15.86
2023-04-29T18:34:56.230Z,15.62
2023-04-29T18:36:29.347Z,15.45
2023-04-29T18:37:51.284Z,15.28
2023-04-29T18:39:12.568Z,15.14
2023-04-29T18:40:46.278Z,15.11
2023-04-29T18:42:22.285Z,15.99
2023-04-29T18:43:46.275Z,17.09
2023-04-29T18:45:07.651Z,17.90
2023-04-29T18:46:37.484Z,17.93
2023-04-29T18:48:06.654Z,17.55
2023-04-29T18:49:38.448Z,17.02
2023-04-29T18:51:02.799Z,16.61
2023-04-29T18:52:29.571Z,16.26
2023-04-29T18:53:59.097Z,15.99
2023-04-29T18:55:23.040Z,15.73
2023-04-29T18:56:47.227Z,15.51
2023-04-29T18:58:09.345Z,15.31
2023-04-29T18:59:31.947Z,15.13
2023-04-29T19:00:54.041Z,15.24
2023-04-29T19:02:28.109Z,16.19
2023-04-29T19:03:52.521Z,17.19
2023-04-29T19:05:14.040Z,17.90
2023-04-29T19:06:36.319Z,17.84
2023-04-29T19:08:00.240Z,17.42
2023-04-29T19:09:35.686Z,16.92
2023-04-29T19:11:00.754Z,16.41
2023-04-29T19:12:22.853Z,16.05
2023-04-29T19:13:44.874Z,15.74
2023-04-29T19:15:18.092Z,15.45
2023-04-29T19:16:40.594Z,15.23
2023-04-29T19:18:13.859Z,15.08
2023-04-29T19:19:43.337Z,15.64
2023-04-29T19:21:04.619Z,16.60
2023-04-29T19:22:36.180Z,17.57
2023-04-29T19:24:00.340Z,17.95
2023-04-29T19:25:31.463Z,17.59
2023-04-29T19:26:53.095Z,17.10
2023-04-29T19:28:28.449Z,16.63
2023-04-29T19:29:51.172Z,16.16
2023-04-29T19:31:15.170Z,15.81
2023-04-29T19:32:37.444Z,15.53
2023-04-29T19:33:59.016Z,15.28
2023-04-29T19:35:21.132Z,15.13
2023-04-29T19:36:43.078Z,15.60
2023-04-29T19:38:04.722Z,16.54
2023-04-29T19:39:41.129Z,17.61
2023-04-29T19:41:03.071Z,17.98
2023-04-29T19:42:24.838Z,17.67
2023-04-29T19:43:58.207Z,17.13
2023-04-29T19:45:19.661Z,16.64
2023-04-29T19:46:55.498Z,16.18
2023-04-29T19:48:17.290Z,15.84
2023-04-29T19:49:53.615Z,15.55
2023-04-29T19:51:15.640Z,15.26
2023-04-29T19:52:49.448Z,15.35
2023-04-29T19:54:22.856Z,16.38
2023-04-29T19:55:46.734Z,17.37